Time;durP1;ratioP1;P1;durP2;ratioP2;P2;SDS_P1;SDS_P2;PMS_P1;PMS_P2;Temp;Humidity;BMP_temperature;BMP_pressure;BME280_temperature;BME280_humidity;BME280_pressure;Samples;Min_cycle;Max_cycle;Signal;HPM_P1;HPM_P2
2024/03/08 00:05:05;;;;;;;35.38;21.40;;;;;;;3.13;66.89;101209.03;4940815;28;20061;-79
2024/03/08 00:07:40;;;;;;;31.25;20.48;;;;;;;3.14;66.98;101197.66;4983658;28;20059;-80
2024/03/08 00:10:20;;;;;;;34.92;21.75;;;;;;;3.07;66.96;101191.84;4980126;28;20572;-80
2024/03/08 00:12:53;;;;;;;34.78;21.73;;;;;;;3.04;67.21;101190.25;4980741;28;20051;-80
2024/03/08 00:15:51;;;;;;;33.55;20.75;;;;;;;3.01;67.19;101192.16;4975489;28;20149;-82
2024/03/08 00:18:49;;;;;;;36.60;20.92;;;;;;;3.04;67.14;101187.63;4945346;29;20055;-81
2024/03/08 00:21:26;;;;;;;37.50;21.33;;;;;;;3.05;67.09;101185.84;4974515;28;20050;-80
2024/03/08 00:27:55;;;;;;;35.53;21.25;;;;;;;3.00;67.08;101178.22;4973680;28;20054;-82
2024/03/08 00:34:27;;;;;;;33.08;21.58;;;;;;;2.84;67.64;101176.41;4954394;28;20507;-82
2024/03/08 00:39:41;;;;;;;34.97;21.83;;;;;;;2.76;68.11;101174.97;4978377;28;20547;-81
2024/03/08 00:45:03;;;;;;;36.30;21.77;;;;;;;2.78;68.43;101172.31;4963491;28;20055;-80
2024/03/08 00:47:29;;;;;;;38.88;21.40;;;;;;;2.71;68.63;101170.88;4979178;28;20093;-80
2024/03/08 00:49:56;;;;;;;35.53;22.17;;;;;;;2.70;68.79;101166.59;4981629;28;20077;-79
2024/03/08 00:52:26;;;;;;;38.22;22.38;;;;;;;2.67;68.75;101154.50;4979851;28;20098;-80
2024/03/08 00:54:52;;;;;;;33.20;21.33;;;;;;;2.62;68.92;101160.84;4979996;28;20122;-80
2024/03/08 00:57:19;;;;;;;33.92;21.55;;;;;;;2.58;69.24;101162.75;4981493;28;20055;-80
2024/03/08 00:59:46;;;;;;;36.65;21.83;;;;;;;2.56;69.57;101158.53;4980522;28;20057;-79
2024/03/08 01:02:16;;;;;;;36.13;22.13;;;;;;;2.57;69.06;101160.22;4980833;28;20046;-79
2024/03/08 01:04:43;;;;;;;35.97;22.80;;;;;;;2.55;69.53;101160.31;4980715;28;20074;-81
2024/03/08 01:07:10;;;;;;;35.53;22.88;;;;;;;2.45;69.64;101157.22;4981244;28;20110;-80
2024/03/08 01:09:37;;;;;;;35.45;21.40;;;;;;;2.37;69.79;101151.53;4982068;28;20055;-81
2024/03/08 01:12:03;;;;;;;36.53;21.92;;;;;;;2.39;69.39;101151.44;4983057;28;20074;-79
2024/03/08 01:14:30;;;;;;;33.20;20.98;;;;;;;2.37;69.87;101154.16;4986096;28;20085;-79
2024/03/08 01:16:57;;;;;;;35.63;22.52;;;;;;;2.35;70.19;101153.34;4985947;28;20090;-80
2024/03/08 01:19:25;;;;;;;35.05;21.58;;;;;;;2.28;70.47;101146.72;4979884;28;20078;-81
2024/03/08 01:21:52;;;;;;;35.90;21.67;;;;;;;2.32;70.33;101143.03;4978908;28;20122;-80
2024/03/08 01:24:18;;;;;;;34.20;22.33;;;;;;;2.24;70.73;101134.72;4979094;28;20509;-81
2024/03/08 01:26:46;;;;;;;34.05;21.80;;;;;;;2.27;70.35;101140.63;4980196;28;20070;-81
2024/03/08 01:29:13;;;;;;;37.83;22.40;;;;;;;2.31;69.88;101120.44;4978009;23;20379;-80
2024/03/08 01:31:40;;;;;;;37.03;22.40;;;;;;;2.26;69.94;101125.03;4959343;28;20089;-81
2024/03/08 01:34:06;;;;;;;35.50;22.67;;;;;;;2.26;69.73;101120.66;4954650;29;20087;-80
2024/03/08 01:36:37;;;;;;;34.28;20.92;;;;;;;2.22;70.43;101120.88;4952994;29;20079;-82
2024/03/08 01:39:07;;;;;;;34.67;22.88;;;;;;;2.22;69.98;101115.66;4949801;29;20043;-80
2024/03/08 01:41:35;;;;;;;39.03;22.70;;;;;;;2.24;70.01;101116.44;4957987;28;20071;-80
2024/03/08 01:44:02;;;;;;;37.53;22.45;;;;;;;2.23;69.91;101112.09;4962891;28;20569;-80
2024/03/08 01:46:29;;;;;;;42.28;23.38;;;;;;;2.16;70.40;101114.16;4959279;28;20059;-79
2024/03/08 01:48:57;;;;;;;38.70;22.70;;;;;;;2.11;70.95;101107.47;4958169;29;20477;-80
2024/03/08 01:51:24;;;;;;;36.78;22.00;;;;;;;2.11;70.42;101099.63;4959145;29;20058;-79
2024/03/08 01:53:52;;;;;;;39.63;22.63;;;;;;;2.07;71.14;101100.69;4957635;28;20054;-80
2024/03/08 01:56:20;;;;;;;38.38;22.63;;;;;;;2.06;70.73;101101.59;4955649;29;20055;-78
2024/03/08 01:58:47;;;;;;;35.70;22.35;;;;;;;2.05;71.09;101099.88;4963163;29;20051;-78
2024/03/08 02:01:18;;;;;;;37.35;22.60;;;;;;;1.95;71.53;101089.84;4962278;29;20119;-79
2024/03/08 02:03:46;;;;;;;35.92;21.98;;;;;;;1.92;71.98;101097.84;4960911;28;20442;-79
2024/03/08 02:06:14;;;;;;;38.47;22.92;;;;;;;1.94;71.50;101095.16;4955884;29;20146;-78
2024/03/08 02:08:45;;;;;;;38.75;23.40;;;;;;;2.02;71.12;101085.22;4952272;29;20075;-78
2024/03/08 02:11:14;;;;;;;41.45;23.65;;;;;;;1.99;71.33;101086.19;4958704;29;20434;-80
2024/03/08 02:13:42;;;;;;;39.78;22.58;;;;;;;1.94;71.53;101080.34;4954891;29;20075;-79
2024/03/08 02:16:09;;;;;;;36.47;23.42;;;;;;;1.94;71.88;101082.09;4957471;28;20044;-79
2024/03/08 02:18:36;;;;;;;37.40;22.77;;;;;;;2.01;70.99;101075.72;4957048;29;20051;-80
2024/03/08 02:21:05;;;;;;;39.70;22.85;;;;;;;1.93;71.43;101077.81;4952781;29;20542;-80
2024/03/08 02:23:33;;;;;;;39.22;22.73;;;;;;;1.95;71.28;101071.59;4957492;29;20122;-80
2024/03/08 02:26:00;;;;;;;40.17;23.98;;;;;;;1.91;71.73;101064.81;4959939;28;20086;-80
2024/03/08 02:28:27;;;;;;;39.60;23.00;;;;;;;1.86;72.27;101066.78;4959463;28;20083;-81
2024/03/08 02:30:55;;;;;;;39.17;22.98;;;;;;;1.86;72.39;101077.22;4957702;28;20509;-81
2024/03/08 02:33:23;;;;;;;38.63;22.92;;;;;;;1.87;72.30;101062.41;4956684;29;20086;-81
2024/03/08 02:35:51;;;;;;;36.42;22.70;;;;;;;1.89;72.27;101066.66;4960138;28;20043;-80
2024/03/08 02:38:21;;;;;;;39.67;22.65;;;;;;;1.89;72.24;101056.22;4958313;29;20428;-80
2024/03/08 02:40:50;;;;;;;38.80;23.35;;;;;;;1.82;72.61;101054.78;4957635;29;20083;-80
2024/03/08 02:43:18;;;;;;;39.40;22.67;;;;;;;1.78;72.68;101054.06;4957204;29;20061;-81
2024/03/08 02:45:46;;;;;;;40.00;23.63;;;;;;;1.77;72.44;101056.75;4959116;28;20082;-81
2024/03/08 02:48:14;;;;;;;40.92;23.80;;;;;;;1.79;72.54;101054.94;4956389;29;20118;-82
2024/03/08 02:50:42;;;;;;;38.80;23.58;;;;;;;1.83;72.82;101048.66;4957187;29;20118;-82
2024/03/08 02:53:09;;;;;;;36.45;22.85;;;;;;;1.82;72.40;101052.16;4957919;28;20132;-82
2024/03/08 02:55:38;;;;;;;39.67;23.02;;;;;;;1.79;72.94;101049.72;4960835;29;20051;-82
2024/03/08 02:58:05;;;;;;;40.50;24.50;;;;;;;1.80;72.67;101051.41;4966528;28;20082;-82
2024/03/08 03:00:32;;;;;;;43.42;23.90;;;;;;;1.76;73.16;101039.41;4962026;28;20137;-82
2024/03/08 03:02:59;;;;;;;37.45;22.98;;;;;;;1.76;72.90;101053.28;4960613;29;20047;-82
2024/03/08 03:05:25;;;;;;;36.97;23.33;;;;;;;1.80;72.60;101047.94;4962778;28;20047;-82
2024/03/08 03:07:52;;;;;;;41.72;24.85;;;;;;;1.75;72.36;101046.38;4961035;29;20047;-81
2024/03/08 03:10:21;;;;;;;39.25;23.63;;;;;;;1.78;72.20;101042.78;4964971;29;20073;-80
2024/03/08 03:12:50;;;;;;;35.95;23.25;;;;;;;1.78;72.20;101042.78;4960048;29;20087;-80
2024/03/08 03:15:19;;;;;;;39.47;23.33;;;;;;;1.74;72.55;101036.00;4961404;28;20122;-81
2024/03/08 03:17:48;;;;;;;38.75;23.98;;;;;;;1.76;72.16;101036.78;4958073;29;20048;-81
2024/03/08 03:20:22;;;;;;;40.13;24.08;;;;;;;1.75;72.54;101027.28;4959564;29;20055;-81
2024/03/08 03:22:51;;;;;;;40.60;23.50;;;;;;;1.70;72.79;101027.47;4958510;28;20055;-81
2024/03/08 03:25:24;;;;;;;39.13;24.38;;;;;;;1.78;72.13;101024.50;4963384;28;20525;-80
2024/03/08 03:27:56;;;;;;;41.25;23.75;;;;;;;1.75;72.21;101022.06;4956811;29;20082;-79
2024/03/08 03:30:22;;;;;;;40.45;23.20;;;;;;;1.77;72.24;101015.84;4958546;29;20115;-80
2024/03/08 03:32:50;;;;;;;42.15;23.25;;;;;;;1.73;72.75;101023.88;4959342;28;20137;-79
2024/03/08 03:35:17;;;;;;;40.90;23.65;;;;;;;1.67;72.88;101018.94;4961559;28;20059;-81
2024/03/08 03:37:51;;;;;;;40.65;24.00;;;;;;;1.62;72.99;101020.91;4967594;28;20051;-79
2024/03/08 03:40:19;;;;;;;39.47;23.25;;;;;;;1.66;72.76;101022.47;4960050;29;20051;-80
2024/03/08 03:42:46;;;;;;;40.80;23.10;;;;;;;1.58;72.98;101019.34;4960942;29;20130;-82
2024/03/08 03:45:19;;;;;;;41.85;24.80;;;;;;;1.58;72.85;101021.94;4960350;29;20052;-82
2024/03/08 03:47:46;;;;;;;39.13;24.02;;;;;;;1.65;72.94;101023.34;4959698;28;20046;-82
2024/03/08 03:50:13;;;;;;;43.80;25.30;;;;;;;1.62;72.83;101016.53;4960370;29;20115;-81
2024/03/08 03:52:39;;;;;;;42.65;23.95;;;;;;;1.54;73.13;101017.78;4959740;29;20054;-82
2024/03/08 03:55:08;;;;;;;39.72;23.65;;;;;;;1.54;73.26;101009.97;4962090;28;20447;-81
2024/03/08 03:57:34;;;;;;;43.28;24.00;;;;;;;1.57;73.11;101017.66;4960160;28;20086;-82
2024/03/08 04:00:02;;;;;;;40.83;24.38;;;;;;;1.61;72.83;101013.97;4965213;28;20179;-80
2024/03/08 04:02:30;;;;;;;42.85;24.08;;;;;;;1.52;72.94;101010.03;4970137;28;20100;-81
2024/03/08 04:04:57;;;;;;;40.83;23.80;;;;;;;1.63;72.90;101009.56;4968493;28;20071;-80
2024/03/08 04:07:24;;;;;;;46.90;24.83;;;;;;;1.61;72.65;101003.53;4960823;29;20051;-80
2024/03/08 04:09:51;;;;;;;47.28;23.92;;;;;;;1.66;72.36;101002.44;4958617;29;20114;-80
2024/03/08 04:12:18;;;;;;;45.95;25.90;;;;;;;1.63;72.64;101001.72;4959879;29;20066;-81
2024/03/08 04:14:44;;;;;;;45.95;23.63;;;;;;;1.56;72.71;101001.13;4966328;28;20439;-81
2024/03/08 04:17:11;;;;;;;43.55;23.77;;;;;;;1.56;72.68;100995.06;4966198;29;20119;-81
2024/03/08 04:19:40;;;;;;;41.70;23.75;;;;;;;1.63;72.60;101001.72;4965124;29;20047;-81
2024/03/08 04:22:07;;;;;;;42.35;25.15;;;;;;;1.65;72.66;100994.66;4961769;29;20047;-81
2024/03/08 04:24:37;;;;;;;40.72;23.70;;;;;;;1.72;71.70;101001.31;4961903;28;20074;-81
2024/03/08 04:27:04;;;;;;;38.05;22.48;;;;;;;1.68;72.22;100990.16;4957524;29;20082;-81
2024/03/08 04:29:32;;;;;;;40.85;23.85;;;;;;;1.66;72.14;100989.41;4963556;28;20422;-81
2024/03/08 04:31:58;;;;;;;41.53;22.88;;;;;;;1.66;72.21;100991.16;4969405;28;20055;-81
2024/03/08 04:34:28;;;;;;;41.75;24.05;;;;;;;1.64;72.28;100991.22;4965312;29;20066;-81
2024/03/08 04:36:58;;;;;;;45.47;24.60;;;;;;;1.59;72.63;100987.97;4963987;29;20051;-83
2024/03/08 04:39:27;;;;;;;43.25;23.70;;;;;;;1.62;72.51;100984.38;4960369;28;20047;-83
2024/03/08 04:41:56;;;;;;;40.90;24.08;;;;;;;1.59;72.64;100990.56;4962821;28;20537;-82
2024/03/08 04:44:24;;;;;;;43.72;24.42;;;;;;;1.54;72.93;100986.50;4960502;28;20482;-82
2024/03/08 04:46:50;;;;;;;39.50;23.45;;;;;;;1.46;73.05;100984.22;4959885;28;20047;-81
2024/03/08 04:49:17;;;;;;;44.40;24.23;;;;;;;1.45;73.72;100978.16;4958807;28;20506;-81
2024/03/08 04:51:45;;;;;;;41.13;23.27;;;;;;;1.40;73.36;100980.13;4960503;28;20142;-80
2024/03/08 04:54:16;;;;;;;43.58;22.85;;;;;;;1.34;73.71;100976.91;4959607;29;20047;-80
2024/03/08 04:56:43;;;;;;;47.92;24.75;;;;;;;1.32;73.85;100974.38;4959380;28;20051;-80
2024/03/08 04:59:09;;;;;;;44.45;24.92;;;;;;;1.31;74.07;100975.31;4960357;28;20379;-81
2024/03/08 05:01:36;;;;;;;42.40;23.02;;;;;;;1.21;74.47;100974.88;4965719;28;20114;-81
2024/03/08 05:04:03;;;;;;;43.85;23.85;;;;;;;1.19;74.45;100963.63;4956550;29;20059;-81
2024/03/08 05:06:30;;;;;;;42.75;24.08;;;;;;;1.18;74.85;100963.72;4967998;28;20039;-82
2024/03/08 05:08:57;;;;;;;39.72;23.40;;;;;;;1.34;73.98;100959.53;4965520;29;20054;-80
2024/03/08 05:11:25;;;;;;;41.97;23.80;;;;;;;1.36;73.71;100954.25;4967280;28;20051;-81
2024/03/08 05:13:51;;;;;;;42.03;24.95;;;;;;;1.32;74.18;100956.13;4965981;29;20109;-81
2024/03/08 05:16:18;;;;;;;39.35;23.45;;;;;;;1.25;74.25;100949.47;4968060;28;20074;-82
2024/03/08 05:18:46;;;;;;;39.08;23.52;;;;;;;1.23;74.62;100951.31;4968045;29;20580;-82
2024/03/08 05:21:13;;;;;;;43.03;24.13;;;;;;;1.16;74.65;100949.88;4967004;29;20050;-80
2024/03/08 05:23:40;;;;;;;46.30;25.80;;;;;;;1.23;74.43;100948.72;4965728;29;20094;-80
2024/03/08 05:26:06;;;;;;;41.28;24.70;;;;;;;1.26;74.33;100946.81;4963391;28;20138;-79
2024/03/08 05:28:34;;;;;;;46.22;24.77;;;;;;;1.24;74.31;100946.03;4962913;29;20053;-80
2024/03/08 05:31:01;;;;;;;39.65;24.80;;;;;;;1.22;74.31;100949.63;4960692;28;20079;-78
2024/03/08 05:33:30;;;;;;;41.78;23.83;;;;;;;1.21;74.59;100947.94;4957851;29;20074;-79
2024/03/08 05:35:56;;;;;;;41.60;24.67;;;;;;;1.24;74.12;100948.63;4957807;28;20047;-79
2024/03/08 05:38:24;;;;;;;39.72;24.00;;;;;;;1.21;74.96;100947.94;4963433;28;20046;-78
2024/03/08 05:40:51;;;;;;;38.70;23.45;;;;;;;1.17;74.89;100951.59;4957304;28;20054;-79
2024/03/08 05:43:19;;;;;;;41.95;24.33;;;;;;;1.18;74.84;100950.69;4953955;29;20059;-79
2024/03/08 05:46:48;;;;;;;41.83;24.60;;;;;;;1.32;74.03;100953.53;4960165;28;20073;-80
2024/03/08 05:52:45;;;;;;;38.17;23.92;;;;;;;1.41;73.73;100936.63;4934818;28;20445;-81
2024/03/08 05:55:43;;;;;;;43.65;25.48;;;;;;;1.25;74.19;100923.41;4926014;29;20395;-82
2024/03/08 06:01:22;;;;;;;33.95;20.58;;;;;;;1.46;73.30;100925.06;4966402;28;20066;-81
2024/03/08 06:04:22;;;;;;;45.42;24.48;;;;;;;1.45;73.79;100927.75;4958945;29;20047;-80
2024/03/08 06:07:06;;;;;;;38.22;24.05;;;;;;;1.41;73.68;100919.22;4956438;28;20071;-81
2024/03/08 06:09:34;;;;;;;43.65;23.85;;;;;;;1.48;73.70;100925.88;4963665;28;20098;-82
2024/03/08 06:12:01;;;;;;;48.80;25.02;;;;;;;1.51;73.40;100919.66;4956451;29;20063;-80
2024/03/08 06:14:28;;;;;;;44.20;24.13;;;;;;;1.56;73.56;100927.25;4956465;29;20059;-79
2024/03/08 06:16:55;;;;;;;46.33;25.25;;;;;;;1.61;72.89;100925.28;4958607;29;20052;-79
2024/03/08 06:19:23;;;;;;;44.05;24.50;;;;;;;1.55;73.78;100930.78;4962605;28;20047;-79
2024/03/08 06:21:50;;;;;;;38.63;23.38;;;;;;;1.51;73.67;100919.66;4959593;28;20469;-79
2024/03/08 06:24:17;;;;;;;43.58;25.20;;;;;;;1.62;73.25;100920.03;4956304;28;20066;-79
2024/03/08 06:26:44;;;;;;;42.65;24.27;;;;;;;1.56;73.44;100922.03;4956198;28;20395;-80
2024/03/08 06:29:11;;;;;;;44.00;25.10;;;;;;;1.55;73.49;100920.38;4960633;28;20192;-80
2024/03/08 06:31:38;;;;;;;43.35;25.27;;;;;;;1.57;73.57;100914.19;4964633;29;20063;-79
2024/03/08 06:34:07;;;;;;;44.58;24.85;;;;;;;1.63;73.44;100913.03;4962087;29;20058;-79
2024/03/08 06:36:37;;;;;;;44.08;25.10;;;;;;;1.65;73.52;100916.41;4963318;28;20182;-79
2024/03/08 06:39:08;;;;;;;43.78;24.95;;;;;;;1.66;73.46;100918.97;4962524;28;20123;-79
2024/03/08 06:41:36;;;;;;;43.03;24.92;;;;;;;1.79;72.72;100906.22;4970177;28;20051;-79
2024/03/08 06:44:03;;;;;;;41.17;24.17;;;;;;;2.24;71.70;100908.41;4964025;28;20130;-77
2024/03/08 06:46:30;;;;;;;40.00;23.75;;;;;;;2.64;70.00;100909.06;4961055;29;20078;-80
2024/03/08 06:48:56;;;;;;;44.20;24.33;;;;;;;2.81;68.75;100909.94;4960376;28;20082;-79
2024/03/08 06:51:23;;;;;;;41.58;23.80;;;;;;;3.02;68.01;100901.00;4960335;29;20047;-79
2024/03/08 06:53:52;;;;;;;41.67;23.73;;;;;;;3.18;67.63;100901.91;4961279;29;20047;-80
2024/03/08 06:56:19;;;;;;;39.47;23.17;;;;;;;3.47;66.20;100900.38;4960772;28;20128;-80
2024/03/08 06:58:46;;;;;;;38.95;24.55;;;;;;;3.92;65.14;100904.03;4961497;28;20138;-82
2024/03/08 07:01:14;;;;;;;39.55;24.60;;;;;;;4.05;64.30;100899.78;4960700;28;20111;-80
2024/03/08 07:03:44;;;;;;;40.25;24.60;;;;;;;3.55;65.46;100902.56;4959885;29;20055;-80
2024/03/08 07:06:11;;;;;;;42.63;24.52;;;;;;;3.57;65.85;100903.31;4961034;28;20082;-81
2024/03/08 07:08:37;;;;;;;38.67;23.23;;;;;;;3.87;64.86;100902.59;4960982;28;20058;-80
2024/03/08 07:11:05;;;;;;;43.92;24.83;;;;;;;4.39;62.87;100897.91;4960633;28;20082;-81
2024/03/08 07:13:32;;;;;;;41.13;23.83;;;;;;;4.27;63.28;100898.59;4960435;28;20055;-82
2024/03/08 07:16:00;;;;;;;42.63;24.25;;;;;;;4.60;61.63;100894.94;4957673;28;20051;-80
2024/03/08 07:18:29;;;;;;;36.88;22.70;;;;;;;4.53;62.05;100903.19;4958395;28;20047;-80
2024/03/08 07:20:56;;;;;;;40.70;24.80;;;;;;;4.60;62.14;100894.94;4959600;28;20105;-82
2024/03/08 07:26:05;;;;;;;39.53;24.60;;;;;;;4.59;61.63;100881.00;4958718;29;20051;-81
2024/03/08 07:28:32;;;;;;;39.17;23.20;;;;;;;5.20;60.40;100872.09;4971121;23;20040;-78
2024/03/08 07:31:12;;;;;;;41.65;24.33;;;;;;;5.28;59.86;100869.84;4961387;28;20085;-79
2024/03/08 07:33:39;;;;;;;35.83;22.17;;;;;;;5.16;60.20;100865.34;4957780;28;20047;-79
2024/03/08 07:36:06;;;;;;;35.78;23.20;;;;;;;5.15;59.69;100857.59;4958106;29;20083;-79
2024/03/08 07:38:32;;;;;;;39.35;23.83;;;;;;;4.98;60.74;100867.31;4952493;29;20463;-79
2024/03/08 07:40:59;;;;;;;41.58;24.15;;;;;;;5.06;60.88;100853.75;4940230;28;20139;-77
2024/03/08 07:43:27;;;;;;;35.80;23.58;;;;;;;5.08;60.20;100852.69;4946626;29;20115;-79
2024/03/08 07:45:55;;;;;;;47.10;25.20;;;;;;;5.20;60.91;100853.72;4943842;29;20122;-79
2024/03/08 07:48:21;;;;;;;38.13;22.88;;;;;;;5.53;59.79;100852.56;4943143;29;20083;-79
2024/03/08 07:50:49;;;;;;;39.75;23.23;;;;;;;5.77;59.21;100847.56;4944093;29;20159;-80
2024/03/08 07:53:16;;;;;;;33.50;22.55;;;;;;;5.32;59.63;100850.38;4947121;29;20142;-81
2024/03/08 07:55:44;;;;;;;36.00;23.00;;;;;;;5.74;60.19;100843.34;4944301;29;20047;-82
2024/03/08 07:58:34;;;;;;;39.88;24.08;;;;;;;5.77;58.88;100839.69;4967417;23;20111;-81
2024/03/08 08:04:20;;;;;;;37.72;23.42;;;;;;;5.63;59.07;100829.22;4965055;28;20059;-79
2024/03/08 08:06:46;;;;;;;39.83;23.02;;;;;;;5.69;59.23;100826.19;4971957;28;20070;-80
2024/03/08 08:09:15;;;;;;;36.33;23.90;;;;;;;5.97;57.84;100826.13;4966680;28;20055;-79
2024/03/08 08:11:43;;;;;;;37.97;22.70;;;;;;;5.61;59.33;100812.72;4973350;28;20062;-79
2024/03/08 08:14:10;;;;;;;37.65;24.35;;;;;;;5.67;59.21;100820.19;4973890;28;20047;-78
2024/03/08 08:16:37;;;;;;;35.95;22.38;;;;;;;5.93;58.91;100814.13;4968063;28;20293;-79
2024/03/08 08:19:07;;;;;;;38.28;23.63;;;;;;;6.04;58.23;100810.81;4963768;28;20113;-80
2024/03/08 08:21:36;;;;;;;38.45;23.55;;;;;;;6.03;58.57;100807.34;4964463;29;20043;-79
2024/03/08 08:24:03;;;;;;;35.05;23.00;;;;;;;6.29;58.21;100799.50;4962561;29;20056;-81
2024/03/08 08:26:30;;;;;;;39.08;23.30;;;;;;;6.00;58.60;100791.78;4966622;29;20039;-79
2024/03/08 08:28:56;;;;;;;36.35;22.88;;;;;;;6.39;57.25;100790.09;4977826;28;20050;-80
2024/03/08 08:31:23;;;;;;;40.40;25.00;;;;;;;6.53;57.03;100787.38;4969888;28;20158;-79
2024/03/08 08:33:50;;;;;;;34.97;22.65;;;;;;;6.62;57.01;100779.78;4972978;28;20107;-80
2024/03/08 08:36:16;;;;;;;32.88;21.52;;;;;;;6.91;56.93;100777.78;4959758;29;20079;-80
2024/03/08 08:38:45;;;;;;;34.20;21.95;;;;;;;6.46;56.93;100775.56;4962290;28;20525;-79
2024/03/08 08:41:12;;;;;;;31.95;22.83;;;;;;;6.31;56.77;100776.63;4961594;29;20057;-79
2024/03/08 08:43:39;;;;;;;34.05;21.92;;;;;;;6.23;57.34;100771.03;4969932;28;20047;-79
2024/03/08 08:46:06;;;;;;;30.10;21.50;;;;;;;6.41;57.53;100763.69;4975506;28;20150;-79
2024/03/08 08:48:32;;;;;;;31.95;21.83;;;;;;;6.36;57.55;100761.38;4966231;28;20058;-79
2024/03/08 08:50:59;;;;;;;34.08;21.63;;;;;;;6.24;58.11;100756.94;4965966;28;20093;-80
2024/03/08 08:53:26;;;;;;;33.85;22.63;;;;;;;6.38;57.85;100756.84;4961715;29;20054;-79
2024/03/08 08:55:54;;;;;;;33.40;22.45;;;;;;;6.57;57.64;100766.97;4962946;29;20083;-80
2024/03/08 08:58:20;;;;;;;34.28;21.15;;;;;;;6.42;57.47;100754.84;4960286;28;20114;-80
2024/03/08 09:00:47;;;;;;;31.73;20.45;;;;;;;6.52;56.87;100753.28;4959322;28;20086;-81
2024/03/08 09:03:14;;;;;;;30.88;21.33;;;;;;;6.52;56.81;100746.25;4975597;28;20053;-81
2024/03/08 09:05:42;;;;;;;30.73;21.25;;;;;;;6.52;56.36;100743.63;4965324;28;20051;-81
2024/03/08 09:08:09;;;;;;;32.53;20.98;;;;;;;6.59;56.14;100744.88;4961369;28;20051;-79
2024/03/08 09:10:36;;;;;;;33.00;20.70;;;;;;;6.79;55.95;100755.81;4965426;28;20047;-80
2024/03/08 09:13:04;;;;;;;31.90;21.08;;;;;;;6.69;56.59;100750.31;4959562;28;20110;-80
2024/03/08 09:15:31;;;;;;;34.03;21.52;;;;;;;6.67;56.52;100752.22;4959507;29;20122;-81
2024/03/08 09:17:59;;;;;;;29.00;20.65;;;;;;;6.50;56.56;100734.16;4964185;29;20075;-81
2024/03/08 09:20:25;;;;;;;28.92;20.30;;;;;;;6.51;56.47;100743.69;4964029;28;20047;-80
2024/03/08 09:22:52;;;;;;;31.30;20.55;;;;;;;6.49;57.34;100738.56;4960920;29;20051;-80
2024/03/08 09:25:18;;;;;;;31.70;20.25;;;;;;;6.74;57.46;100737.72;4973158;28;20085;-81
2024/03/08 09:27:46;;;;;;;31.73;20.15;;;;;;;6.61;56.04;100725.50;4971790;28;20051;-80
2024/03/08 09:30:15;;;;;;;30.15;19.05;;;;;;;6.73;57.03;100728.13;4964068;28;20055;-80
2024/03/08 09:32:43;;;;;;;31.77;20.05;;;;;;;6.65;56.34;100722.56;4959700;28;20502;-80
2024/03/08 09:35:10;;;;;;;29.90;19.63;;;;;;;6.88;56.55;100722.75;4949804;28;20055;-81
2024/03/08 09:37:39;;;;;;;31.80;19.67;;;;;;;7.03;55.58;100711.13;4959739;29;20043;-81
2024/03/08 09:40:09;;;;;;;31.17;20.77;;;;;;;6.96;56.10;100715.97;4956033;29;20066;-81
2024/03/08 09:42:38;;;;;;;29.42;19.27;;;;;;;6.98;55.43;100711.47;4955281;29;20111;-80
2024/03/08 09:45:10;;;;;;;28.38;18.75;;;;;;;7.12;55.19;100712.28;4965280;28;20078;-79
2024/03/08 09:47:42;;;;;;;31.03;19.83;;;;;;;7.24;55.55;100698.25;4981802;28;20187;-81
2024/03/08 09:50:10;;;;;;;28.20;19.85;;;;;;;7.16;54.58;100700.56;4971579;28;20296;-80
2024/03/08 09:52:37;;;;;;;31.50;19.58;;;;;;;7.19;55.03;100695.94;4976121;28;20055;-82
2024/03/08 09:55:06;;;;;;;29.23;20.67;;;;;;;7.09;54.59;100690.47;4982312;28;20078;-80
2024/03/08 09:57:33;;;;;;;28.13;17.88;;;;;;;7.24;54.41;100692.97;4982054;28;20105;-81
2024/03/08 10:00:00;;;;;;;26.98;19.02;;;;;;;7.24;54.32;100693.81;4974462;28;20433;-81
2024/03/08 10:02:26;;;;;;;27.52;18.10;;;;;;;7.49;54.50;100682.31;4974478;28;20055;-80
2024/03/08 10:04:54;;;;;;;26.88;17.88;;;;;;;7.56;53.96;100672.19;4971540;28;20066;-80
2024/03/08 10:07:21;;;;;;;28.35;18.30;;;;;;;7.58;53.53;100665.00;4975322;28;20059;-81
2024/03/08 10:09:50;;;;;;;26.20;17.48;;;;;;;7.76;53.21;100660.13;4961455;28;20106;-80
2024/03/08 10:12:17;;;;;;;26.70;17.42;;;;;;;7.50;52.22;100655.03;4976562;28;20066;-81
2024/03/08 10:14:44;;;;;;;28.73;18.95;;;;;;;7.79;53.38;100657.28;4960207;28;20051;-79
2024/03/08 10:17:11;;;;;;;24.92;17.13;;;;;;;8.05;52.79;100642.97;4974486;28;20078;-81
2024/03/08 10:19:38;;;;;;;25.63;17.48;;;;;;;8.04;52.85;100649.22;4974662;28;20047;-81
2024/03/08 10:22:06;;;;;;;25.45;16.58;;;;;;;7.93;52.32;100637.78;4955071;29;20051;-79
2024/03/08 10:24:34;;;;;;;28.25;17.60;;;;;;;8.01;52.15;100636.25;4964291;29;20051;-81
2024/03/08 10:27:04;;;;;;;25.40;16.77;;;;;;;8.21;50.84;100632.06;4963449;28;20149;-81
2024/03/08 10:29:32;;;;;;;24.60;17.60;;;;;;;8.12;51.67;100627.50;4979425;28;20057;-81
2024/03/08 10:31:58;;;;;;;25.17;16.00;;;;;;;8.28;51.27;100611.34;4970691;28;20055;-80
2024/03/08 10:34:25;;;;;;;25.33;16.95;;;;;;;8.39;51.63;100619.28;4981200;28;20087;-81
2024/03/08 10:36:52;;;;;;;24.08;15.43;;;;;;;8.66;50.29;100612.78;4963818;29;20521;-82
2024/03/08 10:39:24;;;;;;;21.45;14.93;;;;;;;8.72;49.56;100604.41;4962614;28;20066;-81
2024/03/08 10:41:57;;;;;;;22.27;15.27;;;;;;;8.77;49.98;100596.94;4965896;28;20099;-80
2024/03/08 10:44:40;;;;;;;20.20;14.18;;;;;;;8.72;48.63;100594.69;4965307;28;20085;-81
2024/03/08 10:47:12;;;;;;;;;;;;;;;8.75;48.88;100606.78;4957698;29;20070;-81
2024/03/08 10:49:44;;;;;;;21.85;14.27;;;;;;;8.84;48.82;100598.16;4965388;29;19926;-80
2024/03/08 10:52:13;;;;;;;19.83;13.30;;;;;;;8.82;48.19;100589.50;4962826;29;20129;-81
2024/03/08 10:54:43;;;;;;;19.05;13.38;;;;;;;9.05;47.59;100583.19;4972572;28;20138;-80
2024/03/08 10:57:10;;;;;;;17.13;12.05;;;;;;;8.98;47.06;100579.38;4977899;28;20071;-81
2024/03/08 10:59:37;;;;;;;20.00;12.88;;;;;;;9.07;46.52;100581.28;4962750;29;20079;-82
2024/03/08 11:02:05;;;;;;;20.20;13.38;;;;;;;8.91;46.35;100580.84;4962509;29;20102;-81
2024/03/08 11:04:33;;;;;;;18.13;12.27;;;;;;;9.07;45.65;100589.19;4962449;29;20047;-80
2024/03/08 11:07:03;;;;;;;17.35;12.63;;;;;;;9.11;46.54;100568.66;4964520;28;20062;-81
2024/03/08 11:09:30;;;;;;;17.67;12.50;;;;;;;9.24;46.31;100563.19;4963310;28;20127;-81
2024/03/08 11:12:29;;;;;;;19.17;13.23;;;;;;;9.20;46.57;100565.25;4980502;28;20051;-82
2024/03/08 11:14:56;;;;;;;17.27;12.27;;;;;;;9.53;46.86;100556.31;4963941;28;20115;-82
2024/03/08 11:17:27;;;;;;;18.42;12.50;;;;;;;9.25;44.80;100565.72;4980750;28;20057;-81
2024/03/08 11:19:57;;;;;;;17.40;12.82;;;;;;;9.15;46.88;100569.22;4988433;28;20047;-82
2024/03/08 11:22:26;;;;;;;18.15;13.20;;;;;;;9.13;45.37;100565.88;4988828;28;20128;-81
2024/03/08 11:24:53;;;;;;;17.15;11.50;;;;;;;9.29;46.03;100559.22;4978668;28;20055;-82
2024/03/08 11:27:21;;;;;;;16.95;11.85;;;;;;;9.28;44.89;100556.69;4967766;29;20051;-82
2024/03/08 11:30:11;;;;;;;19.02;12.70;;;;;;;9.24;45.29;100547.34;4968789;28;20545;-81
2024/03/08 11:32:38;;;;;;;18.65;13.20;;;;;;;9.24;45.00;100545.56;4963416;29;20051;-81
2024/03/08 11:35:08;;;;;;;17.48;12.45;;;;;;;9.31;46.02;100548.50;4971932;28;20051;-82
2024/03/08 11:37:35;;;;;;;16.75;12.43;;;;;;;9.41;45.03;100541.50;4975547;28;20043;-81
2024/03/08 11:40:04;;;;;;;20.42;13.90;;;;;;;9.36;46.19;100535.75;4989500;28;20057;-80
2024/03/08 11:42:31;;;;;;;18.95;13.23;;;;;;;9.76;45.53;100527.09;4990313;28;20133;-81
2024/03/08 11:44:58;;;;;;;19.38;13.50;;;;;;;9.85;45.09;100524.50;4982039;28;20051;-79
2024/03/08 11:47:26;;;;;;;21.45;13.10;;;;;;;9.87;44.10;100529.66;4989342;28;20053;-81
2024/03/08 11:49:53;;;;;;;24.77;14.10;;;;;;;9.84;45.20;100537.84;4990069;28;20046;-81
2024/03/08 11:52:20;;;;;;;17.60;12.80;;;;;;;9.71;43.90;100524.00;4988029;28;20065;-81
2024/03/08 11:54:53;;;;;;;17.95;13.05;;;;;;;9.69;44.03;100510.09;4987970;28;20114;-81